Time;durP1;ratioP1;P1;durP2;ratioP2;P2;SDS_P1;SDS_P2;PMS_P1;PMS_P2;Temp;Humidity;BMP_temperature;BMP_pressure;BME280_temperature;BME280_humidity;BME280_pressure;Samples;Min_cycle;Max_cycle;Signal;HPM_P1;HPM_P2
2023/12/21 00:01:57;;;;;;;27.17;3.65;;;9.10;99.90;;;;;;5100857;28;21967;-66
2023/12/21 00:04:23;;;;;;;26.17;3.67;;;9.20;99.90;;;;;;5083648;28;20052;-65
2023/12/21 00:06:49;;;;;;;23.63;3.47;;;9.10;99.90;;;;;;5084759;28;20044;-66
2023/12/21 00:09:14;;;;;;;31.00;3.30;;;9.10;99.90;;;;;;5101320;28;20042;-66
2023/12/21 00:11:40;;;;;;;23.50;3.72;;;9.10;99.90;;;;;;5101752;28;20450;-66
2023/12/21 00:14:06;;;;;;;29.35;4.18;;;9.10;99.90;;;;;;5068349;28;20044;-65
2023/12/21 00:16:31;;;;;;;31.42;3.85;;;9.10;99.90;;;;;;5103153;28;21520;-66
2023/12/21 00:18:57;;;;;;;20.92;3.33;;;9.10;99.90;;;;;;5102093;28;20054;-65
2023/12/21 00:21:23;;;;;;;24.35;4.22;;;9.10;99.90;;;;;;5101818;28;20326;-66
2023/12/21 00:23:48;;;;;;;26.67;3.67;;;9.10;99.90;;;;;;5084068;28;20051;-65
2023/12/21 00:26:14;;;;;;;18.00;3.60;;;9.10;99.90;;;;;;5084313;28;20088;-65
2023/12/21 00:28:40;;;;;;;22.55;3.90;;;9.10;99.90;;;;;;5102152;28;20044;-66
2023/12/21 00:31:06;;;;;;;28.40;4.10;;;9.10;99.90;;;;;;5101613;28;20050;-65
2023/12/21 00:33:31;;;;;;;22.60;3.58;;;9.10;99.90;;;;;;5080933;28;20637;-65
2023/12/21 00:35:57;;;;;;;31.80;4.47;;;9.10;99.90;;;;;;5086289;27;20116;-65
2023/12/21 00:38:23;;;;;;;33.15;4.85;;;9.10;99.90;;;;;;5100683;28;20568;-66
2023/12/21 00:40:48;;;;;;;28.88;3.83;;;9.10;99.90;;;;;;5101414;28;20116;-66
2023/12/21 00:43:14;;;;;;;26.50;3.88;;;9.10;99.90;;;;;;5084446;28;20043;-66
2023/12/21 00:45:40;;;;;;;33.90;4.72;;;9.10;99.90;;;;;;5100463;28;20039;-66
2023/12/21 00:48:06;;;;;;;22.55;3.97;;;9.10;99.90;;;;;;5101254;28;20396;-66
2023/12/21 00:50:31;;;;;;;26.45;4.38;;;9.10;99.90;;;;;;5135544;27;20047;-66
2023/12/21 00:52:57;;;;;;;25.13;4.13;;;9.20;99.90;;;;;;5100920;28;20043;-66
2023/12/21 00:55:23;;;;;;;30.30;3.50;;;9.10;99.90;;;;;;5099994;28;20044;-66
2023/12/21 00:57:49;;;;;;;26.13;3.40;;;9.10;99.90;;;;;;5099935;28;20070;-66
2023/12/21 01:00:15;;;;;;;30.85;4.63;;;9.10;99.90;;;;;;5101475;28;20585;-66
2023/12/21 01:02:40;;;;;;;20.70;3.60;;;9.10;99.90;;;;;;5096973;28;20840;-66
2023/12/21 01:05:06;;;;;;;20.55;3.50;;;9.20;99.90;;;;;;5100088;28;20039;-67
2023/12/21 01:07:32;;;;;;;27.17;3.78;;;9.10;99.90;;;;;;5100710;28;20727;-66
2023/12/21 01:09:58;;;;;;;22.83;3.95;;;9.10;99.90;;;;;;5100710;28;20039;-66
2023/12/21 01:12:24;;;;;;;20.55;3.45;;;9.20;99.90;;;;;;5083713;28;20058;-66
2023/12/21 01:14:50;;;;;;;23.42;3.42;;;9.20;99.90;;;;;;5100952;28;20040;-66
2023/12/21 01:17:16;;;;;;;22.05;3.15;;;9.20;99.90;;;;;;5101146;28;20044;-66
2023/12/21 01:19:42;;;;;;;18.92;2.85;;;9.10;99.90;;;;;;5099215;28;20389;-66
2023/12/21 01:22:08;;;;;;;22.98;3.00;;;9.20;99.90;;;;;;5100665;28;20040;-65
2023/12/21 01:24:34;;;;;;;22.63;3.30;;;9.20;99.90;;;;;;5102095;28;20040;-65
2023/12/21 01:27:00;;;;;;;18.58;3.58;;;9.20;99.90;;;;;;5083588;28;20392;-65
2023/12/21 01:29:25;;;;;;;18.98;3.63;;;9.20;99.90;;;;;;5100638;28;20036;-66
2023/12/21 01:31:51;;;;;;;25.67;3.65;;;9.10;99.90;;;;;;5083722;28;20031;-66
2023/12/21 01:34:17;;;;;;;24.63;3.55;;;9.10;99.90;;;;;;5106517;28;20838;-68
2023/12/21 01:36:44;;;;;;;16.60;3.00;;;9.20;99.90;;;;;;5105115;28;20422;-67
2023/12/21 01:39:10;;;;;;;21.00;3.83;;;9.10;99.90;;;;;;5096774;28;20040;-66
2023/12/21 01:41:35;;;;;;;27.88;3.97;;;9.10;99.90;;;;;;5094727;27;20055;-66
2023/12/21 01:44:02;;;;;;;25.27;3.83;;;9.10;99.90;;;;;;5094713;28;20044;-66
2023/12/21 01:46:29;;;;;;;21.30;4.10;;;9.10;99.90;;;;;;5097601;28;20040;-66
2023/12/21 01:48:55;;;;;;;21.05;3.95;;;9.10;99.90;;;;;;5130819;27;20054;-66
2023/12/21 01:51:21;;;;;;;23.40;3.15;;;9.10;99.90;;;;;;5104738;28;20042;-66
2023/12/21 01:53:50;;;;;;;26.23;3.33;;;9.10;99.90;;;;;;5078573;28;20570;-66
2023/12/21 01:56:20;;;;;;;18.52;3.40;;;9.10;99.90;;;;;;5081386;28;20075;-66
2023/12/21 01:58:49;;;;;;;26.30;3.60;;;9.10;99.90;;;;;;5093855;28;20082;-65
2023/12/21 02:01:17;;;;;;;19.75;3.58;;;9.10;99.90;;;;;;5099644;28;20048;-65
2023/12/21 02:03:43;;;;;;;21.27;3.60;;;9.10;99.90;;;;;;5085758;28;20043;-66
2023/12/21 02:06:09;;;;;;;24.33;4.40;;;9.10;99.90;;;;;;5086208;28;20073;-66
2023/12/21 02:08:35;;;;;;;23.98;4.00;;;9.10;99.90;;;;;;5098329;28;20489;-66
2023/12/21 02:11:06;;;;;;;19.10;3.78;;;9.10;99.90;;;;;;5135000;27;20048;-66
2023/12/21 02:13:32;;;;;;;19.08;3.53;;;9.10;99.90;;;;;;5099736;28;20051;-66
2023/12/21 02:16:03;;;;;;;21.67;3.20;;;9.10;99.90;;;;;;5086411;28;20544;-65
2023/12/21 02:18:29;;;;;;;20.70;3.38;;;9.10;99.90;;;;;;5095728;28;20625;-66
2023/12/21 02:20:56;;;;;;;26.73;4.60;;;9.10;99.90;;;;;;5086568;27;20785;-66
2023/12/21 02:23:23;;;;;;;26.67;4.88;;;9.10;99.90;;;;;;5135565;27;20051;-67
2023/12/21 02:25:49;;;;;;;17.55;3.63;;;9.10;99.90;;;;;;5100871;28;20071;-66
2023/12/21 02:28:15;;;;;;;20.08;3.22;;;9.10;99.90;;;;;;5085086;28;20078;-66
2023/12/21 02:30:40;;;;;;;19.80;3.72;;;9.10;99.90;;;;;;5100871;28;20507;-66
2023/12/21 02:33:06;;;;;;;22.77;3.38;;;9.10;99.90;;;;;;5102293;27;20043;-66
2023/12/21 02:35:32;;;;;;;23.60;3.97;;;9.10;99.90;;;;;;5102254;28;20847;-66
2023/12/21 02:37:58;;;;;;;22.95;4.03;;;9.10;99.90;;;;;;5103049;28;20104;-66
2023/12/21 02:40:24;;;;;;;21.73;3.72;;;9.10;99.90;;;;;;5094218;28;20101;-67
2023/12/21 02:42:49;;;;;;;23.13;3.45;;;9.10;99.90;;;;;;5101863;28;20059;-67
2023/12/21 02:45:15;;;;;;;21.88;3.88;;;9.10;99.90;;;;;;5086455;28;20040;-66
2023/12/21 02:47:41;;;;;;;20.73;3.90;;;9.10;99.90;;;;;;5103298;28;20046;-69
2023/12/21 02:50:07;;;;;;;18.92;3.75;;;9.10;99.90;;;;;;5099059;28;20145;-67
2023/12/21 02:52:33;;;;;;;22.60;4.07;;;9.10;99.90;;;;;;5086873;28;20075;-66
2023/12/21 02:54:58;;;;;;;21.05;3.60;;;9.10;99.90;;;;;;5102334;28;20523;-66
2023/12/21 02:57:24;;;;;;;17.13;3.33;;;9.10;99.90;;;;;;5085236;28;20053;-67
2023/12/21 02:59:50;;;;;;;24.45;4.45;;;9.10;99.90;;;;;;5086639;28;20476;-66
2023/12/21 03:02:16;;;;;;;23.45;4.00;;;9.10;99.90;;;;;;5082142;28;20047;-67
2023/12/21 03:04:42;;;;;;;23.83;3.63;;;9.10;99.90;;;;;;5103476;28;20510;-66
2023/12/21 03:07:07;;;;;;;15.40;3.35;;;9.10;99.90;;;;;;5103056;28;20036;-67
2023/12/21 03:09:33;;;;;;;27.63;4.20;;;9.40;99.90;;;;;;5102542;28;20079;-66
2023/12/21 03:11:59;;;;;;;20.13;3.95;;;9.10;99.90;;;;;;5097249;28;20125;-67
2023/12/21 03:14:24;;;;;;;17.52;3.20;;;9.10;99.90;;;;;;5116763;27;20047;-66
2023/12/21 03:16:51;;;;;;;17.27;3.60;;;9.10;99.90;;;;;;5094180;28;20569;-66
2023/12/21 03:19:16;;;;;;;16.52;3.35;;;9.10;99.90;;;;;;5099927;28;20043;-67
2023/12/21 03:21:42;;;;;;;20.00;4.40;;;9.20;99.90;;;;;;5101252;28;20634;-65
2023/12/21 03:24:08;;;;;;;16.77;3.58;;;9.10;99.90;;;;;;5101973;28;20155;-66
2023/12/21 03:26:34;;;;;;;15.07;3.33;;;9.10;99.90;;;;;;5102326;28;20055;-66
2023/12/21 03:29:00;;;;;;;23.10;4.00;;;9.10;99.90;;;;;;5085335;28;20074;-66
2023/12/21 03:31:26;;;;;;;21.77;3.40;;;9.10;99.90;;;;;;5085931;28;20047;-66
2023/12/21 03:33:52;;;;;;;19.48;4.57;;;9.10;99.90;;;;;;5086039;28;20199;-66
2023/12/21 03:36:17;;;;;;;20.10;4.05;;;9.10;99.90;;;;;;5102429;28;20036;-67
2023/12/21 03:38:43;;;;;;;23.15;4.10;;;9.10;99.90;;;;;;5102552;28;20480;-66
2023/12/21 03:41:09;;;;;;;20.55;3.92;;;9.10;99.90;;;;;;5105433;27;20035;-66
2023/12/21 03:43:35;;;;;;;21.92;3.90;;;9.10;99.90;;;;;;5102864;28;20196;-65
2023/12/21 03:46:01;;;;;;;15.65;4.22;;;9.10;99.90;;;;;;5102002;28;20124;-66
2023/12/21 03:48:27;;;;;;;20.77;3.80;;;9.10;99.90;;;;;;5100041;27;20076;-66
2023/12/21 03:50:52;;;;;;;19.08;4.38;;;9.10;99.90;;;;;;5102509;28;20098;-69
2023/12/21 03:53:18;;;;;;;17.95;3.33;;;9.20;99.90;;;;;;5100007;28;20149;-69
2023/12/21 03:55:44;;;;;;;16.02;3.72;;;9.10;99.90;;;;;;5102400;28;20036;-69
2023/12/21 03:58:10;;;;;;;19.58;5.00;;;9.10;99.90;;;;;;5101714;28;20035;-68
2023/12/21 04:00:35;;;;;;;18.55;4.25;;;9.10;99.90;;;;;;5101563;28;20039;-69
2023/12/21 04:03:01;;;;;;;19.23;3.33;;;9.10;99.90;;;;;;5102056;28;20477;-69
2023/12/21 04:05:27;;;;;;;22.23;3.50;;;9.10;99.90;;;;;;5102229;28;20059;-69
2023/12/21 04:07:53;;;;;;;22.38;3.55;;;9.10;99.90;;;;;;5101961;27;20039;-70
2023/12/21 04:10:19;;;;;;;18.90;3.50;;;9.10;99.90;;;;;;5101546;28;20521;-69
2023/12/21 04:12:44;;;;;;;21.63;3.65;;;9.10;99.90;;;;;;5102533;28;20043;-69
2023/12/21 04:15:11;;;;;;;21.42;4.20;;;9.10;99.90;;;;;;5100856;28;20153;-69
2023/12/21 04:17:37;;;;;;;22.58;3.45;;;9.10;99.90;;;;;;5103674;28;20075;-69
2023/12/21 04:20:04;;;;;;;19.88;3.55;;;9.10;99.90;;;;;;5102432;28;20491;-69
2023/12/21 04:22:30;;;;;;;18.23;4.18;;;9.10;99.90;;;;;;5101812;28;20427;-69
2023/12/21 04:24:56;;;;;;;20.73;3.35;;;9.10;99.90;;;;;;5098844;28;20048;-69
2023/12/21 04:27:22;;;;;;;26.92;3.67;;;9.10;99.90;;;;;;5099421;28;20492;-69
2023/12/21 04:29:48;;;;;;;19.58;3.28;;;9.10;99.90;;;;;;5101937;28;20043;-69
2023/12/21 04:32:14;;;;;;;18.92;3.70;;;9.10;99.90;;;;;;5101317;27;20105;-69
2023/12/21 04:34:39;;;;;;;22.40;3.90;;;9.10;99.90;;;;;;5081836;28;20047;-69
2023/12/21 04:37:06;;;;;;;21.00;3.40;;;9.10;99.90;;;;;;5133679;27;20051;-70
2023/12/21 04:39:32;;;;;;;14.30;3.03;;;9.10;99.90;;;;;;5084066;28;20047;-69
2023/12/21 04:41:58;;;;;;;16.52;2.90;;;9.10;99.90;;;;;;5101568;28;20567;-70
2023/12/21 04:44:24;;;;;;;20.08;4.00;;;9.40;99.90;;;;;;5098432;28;20043;-69
2023/12/21 04:46:50;;;;;;;13.23;3.25;;;9.10;99.90;;;;;;5097608;28;20063;-69
2023/12/21 04:49:20;;;;;;;12.95;2.75;;;9.10;99.90;;;;;;5084824;28;20575;-68
2023/12/21 04:51:46;;;;;;;16.20;3.17;;;9.20;99.90;;;;;;5131964;27;20542;-69
2023/12/21 04:54:12;;;;;;;19.00;3.78;;;9.10;99.90;;;;;;5099985;28;20032;-70
2023/12/21 04:56:41;;;;;;;14.13;3.65;;;9.10;99.90;;;;;;5099453;28;20027;-69
2023/12/21 04:59:07;;;;;;;15.40;4.00;;;9.10;99.90;;;;;;5102082;28;20078;-69
2023/12/21 05:01:33;;;;;;;29.13;4.38;;;9.10;99.90;;;;;;5083660;28;20039;-69
2023/12/21 05:04:02;;;;;;;19.50;4.35;;;9.10;99.90;;;;;;5100256;28;20540;-68
2023/12/21 05:06:28;;;;;;;21.27;3.90;;;9.10;99.90;;;;;;5104740;28;20127;-69
2023/12/21 05:08:56;;;;;;;17.13;3.63;;;9.10;99.90;;;;;;5105105;28;20506;-69
2023/12/21 05:11:22;;;;;;;19.08;3.50;;;9.10;99.90;;;;;;5069440;28;20047;-68
2023/12/21 05:13:48;;;;;;;16.88;3.55;;;9.10;99.90;;;;;;5105788;28;20040;-69
2023/12/21 05:16:13;;;;;;;20.90;3.92;;;9.10;99.90;;;;;;5103774;28;20062;-69
2023/12/21 05:18:39;;;;;;;27.50;4.38;;;9.10;99.90;;;;;;5105300;28;21001;-70
2023/12/21 05:21:11;;;;;;;19.45;3.60;;;9.10;99.90;;;;;;5104912;28;20584;-68
2023/12/21 05:23:36;;;;;;;16.85;3.30;;;9.10;99.90;;;;;;5095742;28;20044;-68
2023/12/21 05:26:07;;;;;;;16.27;3.22;;;9.10;99.90;;;;;;5096102;28;20042;-69
2023/12/21 05:28:33;;;;;;;19.13;3.03;;;9.10;99.90;;;;;;5086520;28;20054;-70
2023/12/21 05:30:59;;;;;;;21.05;3.85;;;9.10;99.90;;;;;;5105989;28;20044;-68
2023/12/21 05:33:24;;;;;;;21.13;3.42;;;9.20;99.90;;;;;;5088115;28;20050;-69
2023/12/21 05:35:50;;;;;;;17.23;3.03;;;9.10;99.90;;;;;;5100896;28;20470;-69
2023/12/21 05:38:16;;;;;;;24.63;2.95;;;9.10;99.90;;;;;;5097971;27;20044;-68
2023/12/21 05:40:41;;;;;;;20.13;2.88;;;9.10;99.90;;;;;;5086527;28;20500;-69
2023/12/21 05:43:07;;;;;;;22.08;3.05;;;9.10;99.90;;;;;;5104080;28;20036;-69
2023/12/21 05:45:33;;;;;;;20.52;2.72;;;9.10;99.90;;;;;;5104354;28;20393;-69
2023/12/21 05:47:59;;;;;;;17.75;2.88;;;9.10;99.90;;;;;;5087358;28;20047;-69
2023/12/21 05:50:25;;;;;;;21.13;3.28;;;9.10;99.90;;;;;;5105856;27;20142;-68
2023/12/21 05:52:51;;;;;;;18.23;2.80;;;9.10;99.90;;;;;;5104333;28;20502;-68
2023/12/21 05:55:17;;;;;;;26.67;3.17;;;9.10;99.90;;;;;;5102313;28;20039;-68
2023/12/21 05:57:43;;;;;;;20.38;3.20;;;9.10;99.90;;;;;;5104702;28;20051;-68
2023/12/21 06:00:10;;;;;;;21.90;2.75;;;9.10;99.90;;;;;;5102970;28;20586;-69
2023/12/21 06:02:36;;;;;;;22.30;3.83;;;9.20;99.90;;;;;;5102047;28;20075;-69
2023/12/21 06:05:02;;;;;;;21.27;3.50;;;9.10;99.90;;;;;;5084317;28;20082;-66
2023/12/21 06:07:27;;;;;;;21.00;3.08;;;9.10;99.90;;;;;;5098491;28;20051;-66
2023/12/21 06:09:55;;;;;;;27.52;4.10;;;9.20;99.90;;;;;;5104299;27;20058;-66
2023/12/21 06:12:22;;;;;;;21.30;3.08;;;9.10;99.90;;;;;;5100290;28;20040;-66
2023/12/21 06:14:48;;;;;;;29.02;4.10;;;9.10;99.90;;;;;;5098490;28;20047;-66
2023/12/21 06:17:14;;;;;;;21.67;3.55;;;9.60;99.90;;;;;;5098162;28;20043;-66
2023/12/21 06:19:42;;;;;;;20.90;4.35;;;9.20;99.90;;;;;;5101059;28;20047;-66
2023/12/21 06:22:08;;;;;;;17.63;3.13;;;9.10;99.90;;;;;;5099886;28;20100;-66
2023/12/21 06:24:34;;;;;;;16.48;3.22;;;9.20;99.90;;;;;;5104793;27;20052;-66
2023/12/21 06:27:00;;;;;;;19.95;3.30;;;9.80;99.90;;;;;;5100913;27;20734;-66
2023/12/21 06:29:25;;;;;;;14.75;2.83;;;9.20;99.90;;;;;;5094756;28;20130;-67
2023/12/21 06:31:51;;;;;;;16.13;3.67;;;9.20;99.90;;;;;;5093456;28;20745;-66
2023/12/21 06:34:17;;;;;;;13.30;2.47;;;9.20;99.90;;;;;;5098321;28;20040;-66
2023/12/21 06:36:43;;;;;;;18.30;3.67;;;9.20;99.90;;;;;;5099440;28;20067;-66
2023/12/21 06:39:09;;;;;;;15.90;3.00;;;9.20;99.90;;;;;;5081241;28;20205;-65
2023/12/21 06:41:35;;;;;;;17.52;3.40;;;9.20;99.90;;;;;;5079631;28;20059;-66
2023/12/21 06:44:00;;;;;;;14.82;2.55;;;9.20;99.90;;;;;;5085340;28;20043;-66
2023/12/21 06:46:26;;;;;;;18.15;3.42;;;9.20;99.90;;;;;;5067481;28;20047;-66
2023/12/21 06:48:52;;;;;;;15.60;2.90;;;9.20;99.90;;;;;;5063761;28;20048;-66
2023/12/21 06:51:18;;;;;;;13.65;2.28;;;9.20;99.90;;;;;;5112990;27;20089;-66
2023/12/21 06:53:43;;;;;;;16.30;2.83;;;9.20;99.90;;;;;;5069907;28;20052;-65
2023/12/21 06:56:10;;;;;;;14.30;2.60;;;9.20;99.90;;;;;;5083224;27;20059;-65
2023/12/21 06:58:35;;;;;;;13.32;2.67;;;9.40;99.90;;;;;;5115219;27;20503;-66
2023/12/21 07:01:01;;;;;;;12.18;1.92;;;9.20;99.90;;;;;;5115332;27;20060;-66
2023/12/21 07:03:28;;;;;;;9.82;2.22;;;9.20;99.90;;;;;;5090359;28;20564;-65
2023/12/21 07:05:54;;;;;;;12.57;2.60;;;9.20;99.90;;;;;;5111103;27;20093;-66
2023/12/21 07:08:19;;;;;;;11.20;1.88;;;9.20;99.90;;;;;;5080127;28;20587;-66
2023/12/21 07:10:45;;;;;;;9.52;2.20;;;9.20;99.90;;;;;;5077056;28;20054;-65
2023/12/21 07:13:11;;;;;;;8.00;2.00;;;9.20;99.90;;;;;;5091362;28;20042;-66
2023/12/21 07:15:37;;;;;;;9.90;2.15;;;9.20;99.90;;;;;;5091691;27;20506;-66
2023/12/21 07:18:03;;;;;;;10.25;1.73;;;9.20;99.90;;;;;;5084551;28;20035;-66
2023/12/21 07:20:30;;;;;;;10.45;1.95;;;9.20;99.90;;;;;;5131473;27;20047;-66
2023/12/21 07:22:57;;;;;;;11.57;1.92;;;9.20;99.90;;;;;;5102300;28;20048;-65
2023/12/21 07:25:23;;;;;;;11.18;1.73;;;9.30;99.90;;;;;;5076014;28;20052;-65
2023/12/21 07:27:48;;;;;;;12.85;2.22;;;9.20;99.90;;;;;;5113377;27;20032;-66
2023/12/21 07:30:15;;;;;;;11.07;2.05;;;9.20;99.90;;;;;;5112906;27;20548;-66
2023/12/21 07:32:41;;;;;;;9.05;2.03;;;9.30;99.90;;;;;;5098024;27;20055;-67
2023/12/21 07:35:07;;;;;;;8.55;2.00;;;9.20;99.90;;;;;;5121517;27;20656;-67
2023/12/21 07:37:33;;;;;;;17.27;2.13;;;9.20;99.90;;;;;;5087473;28;20052;-67
2023/12/21 07:39:59;;;;;;;9.02;1.85;;;9.20;99.90;;;;;;5125125;27;20096;-66
2023/12/21 07:42:25;;;;;;;10.32;1.90;;;9.20;99.90;;;;;;5126556;27;20130;-66
2023/12/21 07:44:52;;;;;;;12.95;2.38;;;9.20;99.90;;;;;;5091950;27;20051;-66
2023/12/21 07:47:17;;;;;;;16.38;2.80;;;9.20;99.90;;;;;;5095103;28;20219;-67
2023/12/21 07:49:43;;;;;;;15.90;2.10;;;9.20;99.90;;;;;;5092946;28;20036;-66
2023/12/21 07:52:09;;;;;;;15.73;2.40;;;9.20;99.90;;;;;;5059349;28;20732;-66
2023/12/21 07:54:35;;;;;;;13.82;2.30;;;9.20;99.90;;;;;;5119529;27;20051;-66
2023/12/21 07:57:01;;;;;;;10.25;1.88;;;9.20;99.90;;;;;;5092730;28;20047;-67
2023/12/21 07:59:26;;;;;;;9.00;1.77;;;9.30;99.90;;;;;;5091854;28;20105;-66
2023/12/21 08:01:52;;;;;;;13.85;2.30;;;9.20;99.90;;;;;;5095930;28;20043;-67
2023/12/21 08:04:18;;;;;;;14.98;2.55;;;9.30;99.90;;;;;;5100960;28;20076;-67
2023/12/21 08:06:43;;;;;;;12.82;2.28;;;9.30;99.90;;;;;;5097071;28;20325;-66
2023/12/21 08:09:09;;;;;;;20.92;3.67;;;9.20;99.90;;;;;;5129473;27;20036;-67
2023/12/21 08:11:35;;;;;;;13.60;2.22;;;9.30;99.90;;;;;;5132228;27;20445;-65
2023/12/21 08:14:02;;;;;;;17.25;3.15;;;9.30;99.90;;;;;;5097377;28;20147;-66
2023/12/21 08:16:28;;;;;;;18.80;3.60;;;9.30;99.90;;;;;;5091359;28;20062;-65
2023/12/21 08:18:55;;;;;;;25.10;3.50;;;9.30;99.90;;;;;;5077856;28;20047;-66
2023/12/21 08:21:21;;;;;;;26.10;3.05;;;9.30;99.90;;;;;;5090391;28;20052;-67
2023/12/21 08:23:47;;;;;;;21.60;4.70;;;9.30;99.90;;;;;;5122124;27;20075;-65
2023/12/21 08:26:13;;;;;;;27.25;3.42;;;9.30;99.90;;;;;;5089081;28;20078;-66
2023/12/21 08:28:38;;;;;;;29.75;4.05;;;9.30;99.90;;;;;;5079535;28;20051;-66
2023/12/21 08:31:05;;;;;;;23.05;3.90;;;9.40;99.90;;;;;;5096837;28;20134;-66
2023/12/21 08:33:31;;;;;;;30.67;4.00;;;9.40;99.90;;;;;;5098555;28;20055;-66
2023/12/21 08:35:58;;;;;;;32.17;3.97;;;9.40;99.90;;;;;;5081635;28;20035;-66
2023/12/21 08:38:24;;;;;;;25.85;3.80;;;9.40;99.90;;;;;;5096925;28;20070;-66
2023/12/21 08:40:50;;;;;;;24.20;3.28;;;9.40;99.90;;;;;;5094417;28;20134;-66
2023/12/21 08:43:16;;;;;;;23.65;3.97;;;9.40;99.90;;;;;;5080261;28;20092;-66
2023/12/21 08:45:41;;;;;;;19.02;3.00;;;9.50;99.90;;;;;;5129980;27;20039;-66
2023/12/21 08:48:07;;;;;;;25.42;3.40;;;9.50;99.90;;;;;;5080452;28;20138;-67
2023/12/21 08:50:33;;;;;;;26.45;3.75;;;9.50;99.90;;;;;;5121785;27;20389;-67
2023/12/21 08:53:00;;;;;;;23.85;4.03;;;9.50;99.90;;;;;;5130486;27;20075;-67
2023/12/21 08:55:29;;;;;;;21.35;4.28;;;9.60;99.90;;;;;;5097346;28;20040;-66
2023/12/21 08:57:58;;;;;;;25.45;3.28;;;9.60;99.90;;;;;;5128308;27;20059;-67
2023/12/21 09:00:24;;;;;;;22.20;3.85;;;9.60;99.90;;;;;;5081433;28;20522;-66
2023/12/21 09:02:51;;;;;;;22.10;3.38;;;9.60;99.90;;;;;;5081962;28;20146;-66
2023/12/21 09:05:17;;;;;;;19.17;2.95;;;9.60;99.90;;;;;;5133327;27;20043;-67
2023/12/21 09:07:44;;;;;;;20.65;3.20;;;9.60;99.90;;;;;;5099335;28;20544;-66
2023/12/21 09:10:10;;;;;;;20.25;3.05;;;9.60;99.90;;;;;;5128911;27;20506;-66
2023/12/21 09:12:36;;;;;;;27.20;3.47;;;9.70;99.90;;;;;;5133736;27;20066;-67
2023/12/21 09:15:03;;;;;;;22.92;3.55;;;9.70;99.90;;;;;;5099066;28;21486;-67
2023/12/21 09:17:29;;;;;;;24.25;3.72;;;9.70;99.90;;;;;;5099207;28;20165;-67
2023/12/21 09:19:56;;;;;;;32.75;3.72;;;9.70;99.90;;;;;;5096522;28;20075;-67
2023/12/21 09:22:22;;;;;;;32.30;4.00;;;9.80;99.90;;;;;;5128334;27;20104;-67
2023/12/21 09:24:48;;;;;;;26.85;3.88;;;9.70;99.90;;;;;;5100487;28;20039;-66
2023/12/21 09:27:16;;;;;;;27.48;4.45;;;9.70;99.90;;;;;;5099981;28;20377;-66
2023/12/21 09:29:42;;;;;;;19.30;3.50;;;9.70;99.90;;;;;;5100192;28;20071;-66
2023/12/21 09:32:08;;;;;;;27.30;4.55;;;9.80;99.90;;;;;;5098869;28;20122;-66
2023/12/21 09:34:34;;;;;;;25.33;3.47;;;9.80;99.90;;;;;;5122620;27;20069;-66
2023/12/21 09:37:04;;;;;;;28.25;3.58;;;9.80;99.90;;;;;;5078704;28;20055;-67
2023/12/21 09:39:30;;;;;;;25.23;3.28;;;9.80;99.90;;;;;;5123194;27;20126;-67
2023/12/21 09:42:00;;;;;;;25.40;3.35;;;9.90;99.90;;;;;;5115302;27;20059;-67
2023/12/21 09:44:27;;;;;;;30.08;4.45;;;9.90;99.90;;;;;;5092338;28;20124;-67
2023/12/21 09:46:54;;;;;;;29.80;3.88;;;9.90;99.90;;;;;;5120504;27;20491;-66
2023/12/21 09:49:21;;;;;;;25.15;3.58;;;9.90;99.90;;;;;;5076061;28;20040;-66
2023/12/21 09:51:49;;;;;;;23.70;4.20;;;9.90;99.90;;;;;;5094693;28;21168;-68
2023/12/21 09:54:17;;;;;;;21.05;2.50;;;9.90;99.90;;;;;;5113643;27;20081;-67
2023/12/21 09:56:46;;;;;;;21.30;3.13;;;10.00;99.90;;;;;;5079088;28;20404;-67
2023/12/21 09:59:13;;;;;;;18.73;3.15;;;10.00;99.90;;;;;;5120231;27;20051;-67
2023/12/21 10:01:39;;;;;;;21.75;3.40;;;10.00;99.90;;;;;;5071869;28;20055;-68
2023/12/21 10:04:07;;;;;;;25.00;3.42;;;10.00;99.90;;;;;;5071720;28;20110;-69
2023/12/21 10:06:33;;;;;;;19.85;2.80;;;10.10;99.90;;;;;;5091390;28;20062;-70
2023/12/21 10:08:59;;;;;;;17.92;3.35;;;10.10;99.90;;;;;;5072884;28;20438;-69
2023/12/21 10:11:25;;;;;;;23.33;3.45;;;10.10;99.90;;;;;;5077627;27;20044;-68
2023/12/21 10:13:55;;;;;;;20.40;3.95;;;10.10;99.90;;;;;;5066641;28;20043;-69
2023/12/21 10:16:26;;;;;;;25.45;3.08;;;10.10;99.90;;;;;;5069112;28;20046;-68
2023/12/21 10:18:52;;;;;;;15.82;3.08;;;10.40;99.90;;;;;;5080545;27;20055;-68
2023/12/21 10:21:19;;;;;;;27.20;3.35;;;10.20;99.90;;;;;;5085486;28;20547;-68
2023/12/21 10:23:45;;;;;;;20.42;3.10;;;10.20;99.90;;;;;;5090358;28;20040;-69
2023/12/21 10:26:11;;;;;;;32.60;3.05;;;10.20;99.90;;;;;;5076236;28;20050;-70
2023/12/21 10:28:37;;;;;;;18.88;2.50;;;10.20;99.90;;;;;;5093557;28;20059;-68
2023/12/21 10:31:03;;;;;;;19.45;2.97;;;10.30;99.90;;;;;;5124273;27;20415;-69
2023/12/21 10:33:29;;;;;;;20.40;2.53;;;10.30;99.90;;;;;;5090652;28;20044;-69
2023/12/21 10:35:54;;;;;;;21.10;2.70;;;10.50;99.90;;;;;;5097411;28;20925;-69
2023/12/21 10:38:24;;;;;;;17.65;2.75;;;10.30;99.90;;;;;;5064049;28;20046;-69
2023/12/21 10:40:50;;;;;;;21.55;3.13;;;10.40;99.90;;;;;;5085617;28;20043;-68
2023/12/21 10:43:16;;;;;;;25.00;2.88;;;10.40;99.90;;;;;;5089575;28;20047;-69
2023/12/21 10:45:46;;;;;;;18.95;2.65;;;10.40;99.90;;;;;;5073642;28;20040;-69
2023/12/21 10:48:16;;;;;;;18.73;2.88;;;10.40;99.90;;;;;;5090662;28;20088;-68
2023/12/21 10:50:46;;;;;;;16.33;3.05;;;10.40;99.90;;;;;;5085779;28;20036;-69
2023/12/21 10:53:13;;;;;;;23.35;3.28;;;10.50;99.90;;;;;;5088050;27;20036;-69
2023/12/21 10:55:41;;;;;;;25.98;3.80;;;10.50;99.90;;;;;;5103806;27;20122;-69
2023/12/21 10:58:07;;;;;;;11.32;2.58;;;10.50;99.90;;;;;;5120286;27;20044;-69
2023/12/21 11:00:33;;;;;;;30.05;3.35;;;10.50;99.90;;;;;;5069797;28;20547;-69
2023/12/21 11:03:00;;;;;;;20.80;4.63;;;10.30;99.90;;;;;;5086010;28;20112;-70
2023/12/21 11:05:27;;;;;;;25.08;3.10;;;10.50;99.90;;;;;;5065327;28;20682;-70
2023/12/21 11:07:55;;;;;;;23.05;2.65;;;10.80;99.90;;;;;;5072115;28;20093;-69
2023/12/21 11:10:22;;;;;;;17.30;3.42;;;10.50;99.90;;;;;;5068384;28;20946;-66
2023/12/21 11:12:49;;;;;;;23.65;3.47;;;10.50;99.90;;;;;;5116928;27;20050;-68
2023/12/21 11:15:16;;;;;;;19.92;2.85;;;10.50;99.90;;;;;;5089896;28;20055;-69
2023/12/21 11:18:04;;;;;;;25.98;3.13;;;10.50;99.90;;;;;;5088664;28;20040;-70
2023/12/21 11:20:36;;;;;;;24.95;3.33;;;10.50;99.90;;;;;;5086860;28;20484;-69
2023/12/21 11:23:06;;;;;;;31.48;3.60;;;10.60;99.90;;;;;;5071392;28;20066;-70
2023/12/21 11:25:32;;;;;;;25.27;4.07;;;10.50;99.90;;;;;;5089352;28;20047;-70
2023/12/21 11:28:04;;;;;;;22.55;3.42;;;10.50;99.90;;;;;;5088205;28;20101;-69
2023/12/21 11:30:29;;;;;;;;;;;10.50;99.90;;;;;;5086929;28;20179;-72
2023/12/21 11:33:06;;;;;;;30.85;3.58;;;10.60;99.90;;;;;;5089549;28;20023;-70
2023/12/21 11:35:32;;;;;;;20.55;3.70;;;10.60;99.90;;;;;;5072571;28;20044;-68
2023/12/21 11:38:00;;;;;;;20.00;3.30;;;10.60;99.90;;;;;;5073320;28;20039;-70
2023/12/21 11:40:27;;;;;;;24.00;3.35;;;10.50;99.90;;;;;;5087417;28;20751;-68
2023/12/21 11:42:54;;;;;;;29.80;3.63;;;10.60;99.90;;;;;;5090031;28;20052;-67
2023/12/21 11:45:28;;;;;;;36.53;5.00;;;10.60;99.90;;;;;;5088056;28;20051;-68
2023/12/21 11:47:57;;;;;;;33.35;3.80;;;10.60;99.90;;;;;;5105534;27;20044;-67
2023/12/21 11:50:30;;;;;;;23.63;3.88;;;10.60;99.90;;;;;;5085240;28;20061;-66
2023/12/21 11:53:06;;;;;;;23.33;3.80;;;10.70;99.90;;;;;;5082890;28;20466;-67
2023/12/21 11:55:38;;;;;;;28.98;4.38;;;10.70;99.90;;;;;;5062301;28;20051;-67
2023/12/21 11:58:15;;;;;;;30.88;5.22;;;10.70;99.90;;;;;;5059879;28;20138;-65
2023/12/21 12:00:43;;;;;;;26.30;3.63;;;10.70;99.90;;;;;;5078316;28;20128;-67
2023/12/21 12:03:10;;;;;;;30.27;3.83;;;10.70;99.90;;;;;;5110916;27;20047;-67
2023/12/21 12:05:36;;;;;;;25.75;4.35;;;10.70;99.90;;;;;;5109851;27;20109;-67
2023/12/21 12:08:03;;;;;;;19.65;3.60;;;10.80;99.90;;;;;;5081468;28;20040;-66
2023/12/21 12:10:29;;;;;;;27.60;4.15;;;10.70;99.90;;;;;;5075818;28;20055;-67
2023/12/21 12:12:55;;;;;;;27.05;4.88;;;11.00;99.90;;;;;;5079678;28;20102;-66
2023/12/21 12:15:21;;;;;;;24.40;4.00;;;10.70;99.90;;;;;;5099716;27;20056;-69
2023/12/21 12:17:47;;;;;;;26.95;3.55;;;10.70;99.90;;;;;;5067949;28;20108;-67
2023/12/21 12:20:13;;;;;;;22.15;3.78;;;10.70;99.90;;;;;;5081670;28;20044;-67
2023/12/21 12:22:39;;;;;;;26.60;4.32;;;10.70;99.90;;;;;;5083788;28;20193;-66
2023/12/21 12:25:05;;;;;;;31.90;4.85;;;10.70;99.90;;;;;;5085797;28;20216;-67
2023/12/21 12:27:32;;;;;;;42.08;6.68;;;10.80;99.90;;;;;;5101085;27;20040;-68
2023/12/21 12:29:58;;;;;;;27.23;4.05;;;10.70;99.90;;;;;;5064727;28;20378;-67
2023/12/21 12:32:25;;;;;;;31.00;4.53;;;10.80;99.90;;;;;;5086735;28;20695;-70
2023/12/21 12:34:51;;;;;;;31.20;5.03;;;10.80;99.90;;;;;;5069828;28;20043;-69
2023/12/21 12:37:23;;;;;;;26.15;4.13;;;10.80;99.90;;;;;;5082536;28;20040;-66
2023/12/21 12:39:51;;;;;;;26.10;4.40;;;10.80;99.90;;;;;;5109749;27;21021;-68
2023/12/21 12:42:17;;;;;;;33.97;5.13;;;10.80;99.90;;;;;;5079847;28;20486;-67